Nearby METAR Reports

 

KNFE - Fentress Naval, Virginia, USA
Distance from station: ENE 5mi, 7km
Updated: Fri, 21-Feb-2020 3:56pm EST
Clear
Clear
 Wind from N
Wind: N 9 mph , 15 km/h, Gust: 20 mph , 31 km/h
Temperature: 36°F , 2°C
Wind Chill: 29°F , -2°C
Dew Point: 19°F , -7°C
Humidity: 52%
Barometer: 30.47 inHg , 1031.8 hPa
Clouds: Clear
Visibility: 10 miles , 16 km
2020/02/21 20:56 KNFE 212056Z AUTO 35008G17KT 10SM CLR 02/M07 A3047 RMK AO2 SLP321 T00221067 56004
KCPK - Chesapeake, Virginia, USA
Distance from station: W 6mi, 9km
Updated: Fri, 21-Feb-2020 4:35pm EST
Clear
Clear
 Wind from N
Wind: N 8 mph , 13 km/h
Temperature: 32°F , 0°C
Wind Chill: 25°F , -4°C
Dew Point: 18°F , -8°C
Humidity: 55%
Barometer: 30.48 inHg , 1032.2 hPa
Clouds: Clear
Visibility: 10 miles , 16 km
2020/02/21 21:35 KCPK 212135Z AUTO 01007KT 350V050 10SM CLR 00/M08 A3048 RMK AO2 T00041081
 
KNTU - Oceana Nas/Souce, Virginia, USA
Distance from station: NE 14mi, 23km
Updated: Fri, 21-Feb-2020 3:56pm EST
Partly cloudy
Partly cloudy
 Wind from N
Wind: N 14 mph , 22 km/h, Gust: 22 mph , 35 km/h
Temperature: 34°F , 1°C
Wind Chill: 25°F , -4°C
Dew Point: 18°F , -8°C
Humidity: 51%
Barometer: 30.47 inHg , 1031.8 hPa
Clouds: Partly cloudy
Visibility: 10 miles , 16 km
Cloud details: Partly cloudy 3500 ft
2020/02/21 20:56 KNTU 212056Z 35012G19KT 10SM SCT035 01/M08 A3047 RMK AO2 SLP319 T00111083 56004
KORF - Norfolk, Virginia, USA
Distance from station: N 15mi, 24km
Updated: Fri, 21-Feb-2020 4:51pm EST
Clear
Clear
 Wind from N
Wind: N 15 mph , 24 km/h
Temperature: 34°F , 1°C
Wind Chill: 24°F , -4°C
Dew Point: 19°F , -7°C
Humidity: 56%
Barometer: 30.47 inHg , 1031.8 hPa
Clouds: Clear
Visibility: 10 miles , 16 km
2020/02/21 21:51 KORF 212151Z 01013KT 10SM CLR 01/M07 A3047 RMK AO2 SLP317 T00111072
 
KPVG - Norfolk/Hampton, Virginia, USA
Distance from station: WNW 15mi, 24km
Updated: Fri, 21-Feb-2020 3:56pm EST
Few Clouds
Few Clouds
 Wind from varies
Wind: varies 7 mph , 11 km/h
Temperature: 34°F , 1°C
Wind Chill: 28°F , -2°C
Dew Point: 21°F , -6°C
Humidity: 60%
Barometer: 30.49 inHg , 1032.5 hPa
Clouds: Few Clouds
Visibility: 10 miles , 16 km
Cloud details: Few Clouds 3500 ft
2020/02/21 20:56 KPVG 212056Z AUTO VRB06KT 10SM FEW035 01/M06 A3049 RMK AO2 SLP325 6//// T00111061 55006 FZRANO PNO $
KNGU - Norfolk Nas/Cham, Virginia, USA
Distance from station: N 16mi, 26km
Updated: Fri, 21-Feb-2020 3:59pm EST
Few Clouds
Few Clouds
 Wind from NNE
Wind: NNE 14 mph , 22 km/h, Gust: 22 mph , 35 km/h
Temperature: 36°F , 2°C
Wind Chill: 27°F , -3°C
Dew Point: 19°F , -7°C
Humidity: 52%
Barometer: 30.49 inHg , 1032.5 hPa
Clouds: Few Clouds
Visibility: 10 miles , 16 km
Cloud details: Few Clouds 3200 ft
2020/02/21 20:59 KNGU 212059Z 02012G19KT 10SM FEW032 02/M07 A3049 RMK AO2 SLP326 T00171072 56006
 
KSFQ - Suffolk, Virginia, USA
Distance from station: W 21mi, 34km
Updated: Fri, 21-Feb-2020 4:35pm EST
Clear
Clear
 Wind from N
Wind: N 6 mph , 9 km/h
Temperature: 34°F , 1°C
Wind Chill: 29°F , -2°C
Dew Point: 21°F , -6°C
Humidity: 60%
Barometer: 30.48 inHg , 1032.2 hPa
Clouds: Clear
Visibility: 10 miles , 16 km
2020/02/21 21:35 KSFQ 212135Z AUTO 35005KT 10SM CLR 01/M06 A3048 RMK AO2 P0003 T00101059
KONX - Currituck, North Carolina, USA
Distance from station: SSE 22mi, 36km
Updated: Fri, 21-Feb-2020 3:15pm EST
NOT Current
Partly cloudy
Partly cloudy
 Wind from NNE
Wind: NNE 13 mph , 20 km/h, Gust: 24 mph , 39 km/h
Temperature: 34°F , 1°C
Wind Chill: 25°F , -4°C
Dew Point: 23°F , -5°C
Humidity: 65%
Barometer: 30.47 inHg , 1031.8 hPa
Clouds: Partly cloudy
Visibility: 10 miles , 16 km
Cloud details: Partly cloudy 3400 ft
2020/02/21 20:15 KONX 212015Z AUTO 02011G21KT 10SM SCT034 01/M05 A3047 RMK AO2 T00101052
 
KLFI - Langley Afb/Hamp, Virginia, USA
Distance from station: NNW 28mi, 45km
Updated: Fri, 21-Feb-2020 3:56pm EST
Few Clouds
Few Clouds
 Wind from NE
Wind: NE 10 mph , 17 km/h
Temperature: 34°F , 1°C
Wind Chill: 26°F , -3°C
Dew Point: 21°F , -6°C
Humidity: 60%
Barometer: 30.47 inHg , 1031.8 hPa
Clouds: Few Clouds
Visibility: 10 miles , 16 km
Cloud details: Few Clouds 20000 ft
2020/02/21 20:56 KLFI 212056Z 04009KT 10SM FEW200 01/M06 A3047 RMK AO2A SLP325 T00121064 57008 $
KECG - Elizabeth City, North Carolina, USA
Distance from station: S 29mi, 46km
Updated: Fri, 21-Feb-2020 3:54pm EST
Clear
Clear
 Wind from N
Wind: N 21 mph , 33 km/h, Gust: 25 mph , 41 km/h
Temperature: 36°F , 2°C
Wind Chill: 25°F , -4°C
Dew Point: 19°F , -7°C
Humidity: 52%
Barometer: 30.46 inHg , 1031.5 hPa
Clouds: Clear
Visibility: 10 miles , 16 km
2020/02/21 20:54 KECG 212054Z 01018G22KT 10SM CLR 02/M07 A3046 RMK AO2 PK WND 34026/2011 SLP314 T00221067 56002
 
KPHF - Newport News, Virginia, USA
Distance from station: NNW 35mi, 56km
Updated: Fri, 21-Feb-2020 3:54pm EST
Clear
Clear
 Wind from N
Wind: N 10 mph , 17 km/h
Temperature: 36°F , 2°C
Wind Chill: 29°F , -2°C
Dew Point: 18°F , -8°C
Humidity: 48%
Barometer: 30.48 inHg , 1032.2 hPa
Clouds: Clear
Visibility: 10 miles , 16 km
2020/02/21 20:54 KPHF 212054Z 36009KT 10SM CLR 02/M08 A3048 RMK AO2 SLP322 T00221083 56009
KFAF - Ft Eustis/Felker, Virginia, USA
Distance from station: NW 37mi, 60km
Updated: Fri, 21-Feb-2020 3:56pm EST
Clear
Clear
 Wind from NNE
Wind: NNE 6 mph , 9 km/h
Temperature: 37°F , 3°C
Wind Chill: 32°F , 0°C
Dew Point: 12°F , -11°C
Humidity: 35%
Barometer: 30.46 inHg , 1031.5 hPa
Clouds: Clear
Visibility: 10 miles , 16 km
2020/02/21 20:56 KFAF 212056Z 03005KT 10SM CLR 03/M11 A3046 RMK AO2A SLP318 T00251111 56010 $
 
KFKN - Franklin/J B Ros, Virginia, USA
Distance from station: W 38mi, 61km
Updated: Fri, 21-Feb-2020 4:35pm EST
Clear
Clear
 Wind from N
Wind: N 5 mph , 7 km/h
Temperature: 34°F , 1°C
Wind Chill: 29°F , -2°C
Dew Point: 21°F , -6°C
Humidity: 60%
Barometer: 30.49 inHg , 1032.5 hPa
Clouds: Clear
Visibility: 10 miles , 16 km
2020/02/21 21:35 KFKN 212135Z AUTO 36004KT 10SM CLR 01/M06 A3049 RMK AO2 T00051064
KJGG - Williamsburg, Virginia, USA
Distance from station: NW 47mi, 76km
Updated: Fri, 21-Feb-2020 4:35pm EST
Clear
Clear
 Wind from calm
Wind: Calm
Temperature: 39°F , 4°C
Dew Point: 23°F , -5°C
Humidity: 52%
Barometer: 30.49 inHg , 1032.5 hPa
Clouds: Clear
Visibility: 10 miles , 16 km
2020/02/21 21:35 KJGG 212135Z AUTO 00000KT 10SM CLR 04/M05 A3049 RMK AO1
 
KAKQ - Norfolk/Wakefld, Virginia, USA
Distance from station: WNW 48mi, 78km
Updated: Fri, 21-Feb-2020 3:54pm EST
Clear
Clear
 Wind from varies
Wind: varies 5 mph , 7 km/h
Temperature: 36°F , 2°C
Wind Chill: 32°F , 0°C
Dew Point: 18°F , -8°C
Humidity: 48%
Barometer: 30.48 inHg , 1032.2 hPa
Clouds: Clear
Visibility: 10 miles , 16 km
2020/02/21 20:54 KAKQ 212054Z AUTO VRB04KT 10SM CLR 02/M08 A3048 RMK AO2 SLP323 T00221078 56013
KEDE - Edenton, North Carolina, USA
Distance from station: SSW 50mi, 80km
Updated: Fri, 21-Feb-2020 4:35pm EST
Partly cloudy
Partly cloudy
 Wind from N
Wind: N 8 mph , 13 km/h
Temperature: 34°F , 1°C
Wind Chill: 27°F , -3°C
Dew Point: 27°F , -3°C
Humidity: 75%
Barometer: 30.48 inHg , 1032.2 hPa
Clouds: Partly cloudy
Visibility: 10 miles , 16 km
Cloud details: Partly cloudy 3300 ft
2020/02/21 21:35 KEDE 212135Z AUTO 36007KT 10SM SCT033 01/M03 A3048 RMK AO2 T00081029